sensor_id;sensor_type;location;lat;lon;timestamp;P1;durP1;ratioP1;P2;durP2;ratioP2
81487;SDS011;70897;52.464;13.428;2024-01-30T00:01:05;15.02;;;7.50;;
81487;SDS011;70897;52.464;13.428;2024-01-30T00:03:50;14.10;;;7.40;;
81487;SDS011;70897;52.464;13.428;2024-01-30T00:06:35;13.13;;;7.28;;
81487;SDS011;70897;52.464;13.428;2024-01-30T00:09:21;25.02;;;8.32;;
81487;SDS011;70897;52.464;13.428;2024-01-30T00:12:06;17.92;;;7.80;;
81487;SDS011;70897;52.464;13.428;2024-01-30T00:14:52;14.80;;;7.32;;
81487;SDS011;70897;52.464;13.428;2024-01-30T00:17:37;16.90;;;7.85;;
81487;SDS011;70897;52.464;13.428;2024-01-30T00:20:23;18.02;;;7.90;;
81487;SDS011;70897;52.464;13.428;2024-01-30T00:23:08;18.58;;;7.78;;
81487;SDS011;70897;52.464;13.428;2024-01-30T00:25:54;15.30;;;7.70;;
81487;SDS011;70897;52.464;13.428;2024-01-30T00:28:39;13.73;;;7.50;;
81487;SDS011;70897;52.464;13.428;2024-01-30T00:31:27;15.88;;;7.68;;
81487;SDS011;70897;52.464;13.428;2024-01-30T00:34:12;13.18;;;7.63;;
81487;SDS011;70897;52.464;13.428;2024-01-30T00:36:58;14.25;;;7.55;;
81487;SDS011;70897;52.464;13.428;2024-01-30T00:39:43;17.83;;;7.63;;
81487;SDS011;70897;52.464;13.428;2024-01-30T00:42:29;15.05;;;7.45;;
81487;SDS011;70897;52.464;13.428;2024-01-30T00:45:15;14.68;;;8.00;;
81487;SDS011;70897;52.464;13.428;2024-01-30T00:48:00;12.77;;;7.22;;
81487;SDS011;70897;52.464;13.428;2024-01-30T00:50:46;14.05;;;7.45;;
81487;SDS011;70897;52.464;13.428;2024-01-30T00:53:31;15.00;;;6.97;;
81487;SDS011;70897;52.464;13.428;2024-01-30T00:56:16;12.10;;;6.85;;
81487;SDS011;70897;52.464;13.428;2024-01-30T00:59:03;13.27;;;7.07;;
81487;SDS011;70897;52.464;13.428;2024-01-30T01:01:48;13.48;;;7.25;;
81487;SDS011;70897;52.464;13.428;2024-01-30T01:04:34;15.90;;;7.68;;
81487;SDS011;70897;52.464;13.428;2024-01-30T01:07:19;13.98;;;7.03;;
81487;SDS011;70897;52.464;13.428;2024-01-30T01:10:05;14.85;;;7.07;;
81487;SDS011;70897;52.464;13.428;2024-01-30T01:12:50;13.50;;;6.50;;
81487;SDS011;70897;52.464;13.428;2024-01-30T01:15:35;11.93;;;7.05;;
81487;SDS011;70897;52.464;13.428;2024-01-30T01:18:21;13.20;;;6.68;;
81487;SDS011;70897;52.464;13.428;2024-01-30T01:21:06;15.18;;;7.25;;
81487;SDS011;70897;52.464;13.428;2024-01-30T01:23:52;12.98;;;6.88;;
81487;SDS011;70897;52.464;13.428;2024-01-30T01:26:37;12.95;;;7.18;;
81487;SDS011;70897;52.464;13.428;2024-01-30T01:29:22;12.18;;;7.07;;
81487;SDS011;70897;52.464;13.428;2024-01-30T01:32:13;15.60;;;6.43;;
81487;SDS011;70897;52.464;13.428;2024-01-30T01:34:58;13.60;;;6.85;;
81487;SDS011;70897;52.464;13.428;2024-01-30T01:37:44;13.45;;;7.25;;
81487;SDS011;70897;52.464;13.428;2024-01-30T01:40:29;15.15;;;7.53;;
81487;SDS011;70897;52.464;13.428;2024-01-30T01:43:15;13.57;;;7.00;;
81487;SDS011;70897;52.464;13.428;2024-01-30T01:46:00;13.70;;;6.97;;
81487;SDS011;70897;52.464;13.428;2024-01-30T01:48:46;14.60;;;7.80;;
81487;SDS011;70897;52.464;13.428;2024-01-30T01:51:31;15.52;;;7.47;;
81487;SDS011;70897;52.464;13.428;2024-01-30T01:54:18;12.23;;;6.97;;
81487;SDS011;70897;52.464;13.428;2024-01-30T01:57:03;11.07;;;7.07;;
81487;SDS011;70897;52.464;13.428;2024-01-30T01:59:49;13.80;;;7.28;;
81487;SDS011;70897;52.464;13.428;2024-01-30T02:02:35;12.27;;;7.07;;
81487;SDS011;70897;52.464;13.428;2024-01-30T02:05:21;15.60;;;7.45;;
81487;SDS011;70897;52.464;13.428;2024-01-30T02:08:06;14.80;;;7.68;;
81487;SDS011;70897;52.464;13.428;2024-01-30T02:10:51;14.45;;;7.85;;
81487;SDS011;70897;52.464;13.428;2024-01-30T02:13:37;17.27;;;7.97;;
81487;SDS011;70897;52.464;13.428;2024-01-30T02:16:22;17.48;;;7.72;;
81487;SDS011;70897;52.464;13.428;2024-01-30T02:19:08;14.98;;;7.45;;
81487;SDS011;70897;52.464;13.428;2024-01-30T02:21:53;14.50;;;7.50;;
81487;SDS011;70897;52.464;13.428;2024-01-30T02:24:39;14.27;;;7.78;;
81487;SDS011;70897;52.464;13.428;2024-01-30T02:27:24;12.93;;;7.43;;
81487;SDS011;70897;52.464;13.428;2024-01-30T02:30:10;14.98;;;8.20;;
81487;SDS011;70897;52.464;13.428;2024-01-30T02:32:55;17.30;;;8.10;;
81487;SDS011;70897;52.464;13.428;2024-01-30T02:35:41;15.93;;;8.27;;
81487;SDS011;70897;52.464;13.428;2024-01-30T02:38:26;14.13;;;7.45;;
81487;SDS011;70897;52.464;13.428;2024-01-30T02:41:12;16.15;;;8.10;;
81487;SDS011;70897;52.464;13.428;2024-01-30T02:43:58;13.38;;;7.35;;
81487;SDS011;70897;52.464;13.428;2024-01-30T02:46:43;15.65;;;7.72;;
81487;SDS011;70897;52.464;13.428;2024-01-30T02:49:29;13.82;;;7.55;;
81487;SDS011;70897;52.464;13.428;2024-01-30T02:52:14;16.83;;;8.48;;
81487;SDS011;70897;52.464;13.428;2024-01-30T02:55:00;13.13;;;7.32;;
81487;SDS011;70897;52.464;13.428;2024-01-30T02:57:45;17.05;;;7.97;;
81487;SDS011;70897;52.464;13.428;2024-01-30T03:00:31;14.32;;;8.18;;
81487;SDS011;70897;52.464;13.428;2024-01-30T03:03:16;12.27;;;7.68;;
81487;SDS011;70897;52.464;13.428;2024-01-30T03:06:02;15.18;;;7.85;;
81487;SDS011;70897;52.464;13.428;2024-01-30T03:08:47;14.55;;;8.35;;
81487;SDS011;70897;52.464;13.428;2024-01-30T03:11:33;17.42;;;8.20;;
81487;SDS011;70897;52.464;13.428;2024-01-30T03:14:18;18.13;;;7.95;;
81487;SDS011;70897;52.464;13.428;2024-01-30T03:17:03;15.40;;;8.30;;
81487;SDS011;70897;52.464;13.428;2024-01-30T03:19:49;16.70;;;8.18;;
81487;SDS011;70897;52.464;13.428;2024-01-30T03:22:34;16.50;;;8.15;;
81487;SDS011;70897;52.464;13.428;2024-01-30T03:25:20;15.93;;;8.13;;
81487;SDS011;70897;52.464;13.428;2024-01-30T03:28:05;15.00;;;8.05;;
81487;SDS011;70897;52.464;13.428;2024-01-30T03:30:51;14.45;;;7.97;;
81487;SDS011;70897;52.464;13.428;2024-01-30T03:33:36;14.85;;;8.32;;
81487;SDS011;70897;52.464;13.428;2024-01-30T03:36:22;14.75;;;8.02;;
81487;SDS011;70897;52.464;13.428;2024-01-30T03:39:07;14.52;;;7.60;;
81487;SDS011;70897;52.464;13.428;2024-01-30T03:41:53;16.30;;;8.30;;
81487;SDS011;70897;52.464;13.428;2024-01-30T03:44:38;16.23;;;7.97;;
81487;SDS011;70897;52.464;13.428;2024-01-30T03:47:24;16.60;;;8.40;;
81487;SDS011;70897;52.464;13.428;2024-01-30T03:50:09;13.98;;;8.20;;
81487;SDS011;70897;52.464;13.428;2024-01-30T03:52:55;15.43;;;8.38;;
81487;SDS011;70897;52.464;13.428;2024-01-30T03:55:40;14.63;;;7.95;;
81487;SDS011;70897;52.464;13.428;2024-01-30T03:58:26;16.05;;;8.05;;
81487;SDS011;70897;52.464;13.428;2024-01-30T04:01:14;15.02;;;7.85;;
81487;SDS011;70897;52.464;13.428;2024-01-30T04:04:00;16.50;;;8.65;;
81487;SDS011;70897;52.464;13.428;2024-01-30T04:06:45;16.58;;;8.27;;
81487;SDS011;70897;52.464;13.428;2024-01-30T04:09:30;17.73;;;8.80;;
81487;SDS011;70897;52.464;13.428;2024-01-30T04:12:16;16.92;;;8.52;;
81487;SDS011;70897;52.464;13.428;2024-01-30T04:15:02;14.98;;;8.02;;
81487;SDS011;70897;52.464;13.428;2024-01-30T04:17:48;14.75;;;8.35;;
81487;SDS011;70897;52.464;13.428;2024-01-30T04:20:33;19.63;;;8.05;;
81487;SDS011;70897;52.464;13.428;2024-01-30T04:23:18;17.33;;;9.02;;
81487;SDS011;70897;52.464;13.428;2024-01-30T04:26:04;18.25;;;8.90;;
81487;SDS011;70897;52.464;13.428;2024-01-30T04:28:49;16.95;;;8.55;;
81487;SDS011;70897;52.464;13.428;2024-01-30T04:31:36;15.70;;;9.00;;
81487;SDS011;70897;52.464;13.428;2024-01-30T04:34:21;14.98;;;8.43;;
81487;SDS011;70897;52.464;13.428;2024-01-30T04:37:06;15.13;;;8.75;;
81487;SDS011;70897;52.464;13.428;2024-01-30T04:39:52;15.52;;;8.15;;
81487;SDS011;70897;52.464;13.428;2024-01-30T04:42:37;14.35;;;8.20;;
81487;SDS011;70897;52.464;13.428;2024-01-30T04:45:22;15.80;;;8.75;;
81487;SDS011;70897;52.464;13.428;2024-01-30T04:48:08;17.15;;;8.55;;
81487;SDS011;70897;52.464;13.428;2024-01-30T04:50:53;16.02;;;8.85;;
81487;SDS011;70897;52.464;13.428;2024-01-30T04:53:40;15.18;;;8.50;;
81487;SDS011;70897;52.464;13.428;2024-01-30T04:56:25;14.55;;;8.70;;
81487;SDS011;70897;52.464;13.428;2024-01-30T04:59:11;18.95;;;8.93;;
81487;SDS011;70897;52.464;13.428;2024-01-30T05:01:56;15.13;;;8.02;;
81487;SDS011;70897;52.464;13.428;2024-01-30T05:04:42;17.35;;;8.75;;
81487;SDS011;70897;52.464;13.428;2024-01-30T05:07:27;20.45;;;9.27;;
81487;SDS011;70897;52.464;13.428;2024-01-30T05:10:13;15.45;;;8.85;;
81487;SDS011;70897;52.464;13.428;2024-01-30T05:12:58;17.65;;;8.25;;
81487;SDS011;70897;52.464;13.428;2024-01-30T05:15:44;14.88;;;8.25;;
81487;SDS011;70897;52.464;13.428;2024-01-30T05:18:29;18.98;;;8.43;;
81487;SDS011;70897;52.464;13.428;2024-01-30T05:21:14;13.82;;;8.27;;
81487;SDS011;70897;52.464;13.428;2024-01-30T05:24:00;15.90;;;8.68;;
81487;SDS011;70897;52.464;13.428;2024-01-30T05:26:45;14.85;;;8.23;;
81487;SDS011;70897;52.464;13.428;2024-01-30T05:29:32;18.23;;;8.80;;
81487;SDS011;70897;52.464;13.428;2024-01-30T05:32:18;16.48;;;8.45;;
81487;SDS011;70897;52.464;13.428;2024-01-30T05:35:03;15.30;;;8.80;;
81487;SDS011;70897;52.464;13.428;2024-01-30T05:37:49;16.98;;;8.52;;
81487;SDS011;70897;52.464;13.428;2024-01-30T05:40:34;19.13;;;8.80;;
81487;SDS011;70897;52.464;13.428;2024-01-30T05:43:19;16.33;;;8.30;;
81487;SDS011;70897;52.464;13.428;2024-01-30T05:46:06;16.30;;;8.60;;
81487;SDS011;70897;52.464;13.428;2024-01-30T05:48:51;14.93;;;8.57;;
81487;SDS011;70897;52.464;13.428;2024-01-30T05:51:36;17.00;;;8.88;;
81487;SDS011;70897;52.464;13.428;2024-01-30T05:54:21;15.90;;;8.93;;
81487;SDS011;70897;52.464;13.428;2024-01-30T05:57:07;13.48;;;8.13;;
81487;SDS011;70897;52.464;13.428;2024-01-30T05:59:52;17.00;;;8.90;;
81487;SDS011;70897;52.464;13.428;2024-01-30T06:02:38;43.20;;;19.75;;
81487;SDS011;70897;52.464;13.428;2024-01-30T06:05:23;23.63;;;11.88;;
81487;SDS011;70897;52.464;13.428;2024-01-30T06:08:09;15.75;;;9.25;;
81487;SDS011;70897;52.464;13.428;2024-01-30T06:10:54;14.88;;;8.27;;
81487;SDS011;70897;52.464;13.428;2024-01-30T06:13:40;16.20;;;8.90;;
81487;SDS011;70897;52.464;13.428;2024-01-30T06:16:25;18.63;;;9.32;;
81487;SDS011;70897;52.464;13.428;2024-01-30T06:19:13;14.60;;;8.35;;
81487;SDS011;70897;52.464;13.428;2024-01-30T06:21:59;16.27;;;8.52;;
81487;SDS011;70897;52.464;13.428;2024-01-30T06:24:44;13.40;;;8.13;;
81487;SDS011;70897;52.464;13.428;2024-01-30T06:27:31;15.63;;;8.73;;
81487;SDS011;70897;52.464;13.428;2024-01-30T06:30:17;19.58;;;9.02;;
81487;SDS011;70897;52.464;13.428;2024-01-30T06:33:03;17.05;;;7.97;;
81487;SDS011;70897;52.464;13.428;2024-01-30T06:35:48;16.73;;;8.90;;
81487;SDS011;70897;52.464;13.428;2024-01-30T06:38:34;17.17;;;9.07;;
81487;SDS011;70897;52.464;13.428;2024-01-30T06:41:19;20.73;;;8.68;;
81487;SDS011;70897;52.464;13.428;2024-01-30T06:44:04;15.02;;;8.40;;
81487;SDS011;70897;52.464;13.428;2024-01-30T06:46:52;17.95;;;9.15;;
81487;SDS011;70897;52.464;13.428;2024-01-30T06:49:37;14.07;;;8.27;;
81487;SDS011;70897;52.464;13.428;2024-01-30T06:52:23;15.80;;;8.40;;
81487;SDS011;70897;52.464;13.428;2024-01-30T06:55:08;19.35;;;8.98;;
81487;SDS011;70897;52.464;13.428;2024-01-30T06:57:54;14.25;;;8.05;;
81487;SDS011;70897;52.464;13.428;2024-01-30T07:00:39;17.88;;;9.00;;
81487;SDS011;70897;52.464;13.428;2024-01-30T07:03:25;15.40;;;8.77;;
81487;SDS011;70897;52.464;13.428;2024-01-30T07:06:10;15.23;;;8.27;;
81487;SDS011;70897;52.464;13.428;2024-01-30T07:08:55;16.95;;;8.52;;
81487;SDS011;70897;52.464;13.428;2024-01-30T07:11:41;16.48;;;9.15;;
81487;SDS011;70897;52.464;13.428;2024-01-30T07:14:26;16.85;;;8.45;;
81487;SDS011;70897;52.464;13.428;2024-01-30T07:17:12;14.55;;;7.78;;
81487;SDS011;70897;52.464;13.428;2024-01-30T07:19:57;17.08;;;8.60;;
81487;SDS011;70897;52.464;13.428;2024-01-30T07:22:43;18.75;;;8.70;;
81487;SDS011;70897;52.464;13.428;2024-01-30T07:25:28;18.80;;;8.80;;
81487;SDS011;70897;52.464;13.428;2024-01-30T07:28:14;15.82;;;8.15;;
81487;SDS011;70897;52.464;13.428;2024-01-30T07:31:02;15.80;;;8.80;;
81487;SDS011;70897;52.464;13.428;2024-01-30T07:33:48;15.43;;;8.60;;
81487;SDS011;70897;52.464;13.428;2024-01-30T07:36:33;15.50;;;9.05;;
81487;SDS011;70897;52.464;13.428;2024-01-30T07:39:18;15.90;;;8.25;;
81487;SDS011;70897;52.464;13.428;2024-01-30T07:42:04;15.23;;;8.40;;
81487;SDS011;70897;52.464;13.428;2024-01-30T07:44:49;15.85;;;8.00;;
81487;SDS011;70897;52.464;13.428;2024-01-30T07:47:35;18.73;;;8.27;;
81487;SDS011;70897;52.464;13.428;2024-01-30T07:50:20;17.38;;;8.82;;
81487;SDS011;70897;52.464;13.428;2024-01-30T07:53:06;18.20;;;9.07;;
81487;SDS011;70897;52.464;13.428;2024-01-30T07:55:52;18.67;;;8.85;;
81487;SDS011;70897;52.464;13.428;2024-01-30T07:58:37;19.75;;;8.77;;
81487;SDS011;70897;52.464;13.428;2024-01-30T08:01:22;16.92;;;9.05;;
81487;SDS011;70897;52.464;13.428;2024-01-30T08:04:08;14.27;;;8.35;;
81487;SDS011;70897;52.464;13.428;2024-01-30T08:06:53;15.85;;;9.00;;
81487;SDS011;70897;52.464;13.428;2024-01-30T08:09:39;21.25;;;8.13;;
81487;SDS011;70897;52.464;13.428;2024-01-30T08:12:24;17.25;;;8.80;;
81487;SDS011;70897;52.464;13.428;2024-01-30T08:15:10;16.27;;;8.75;;
81487;SDS011;70897;52.464;13.428;2024-01-30T08:17:56;18.33;;;9.00;;
81487;SDS011;70897;52.464;13.428;2024-01-30T08:20:43;19.17;;;8.82;;
81487;SDS011;70897;52.464;13.428;2024-01-30T08:23:28;16.90;;;8.38;;
81487;SDS011;70897;52.464;13.428;2024-01-30T08:26:13;20.23;;;8.85;;
81487;SDS011;70897;52.464;13.428;2024-01-30T08:28:59;17.05;;;8.68;;
81487;SDS011;70897;52.464;13.428;2024-01-30T08:31:44;16.67;;;9.05;;
81487;SDS011;70897;52.464;13.428;2024-01-30T08:34:30;16.83;;;8.13;;
81487;SDS011;70897;52.464;13.428;2024-01-30T08:37:15;16.48;;;8.02;;
81487;SDS011;70897;52.464;13.428;2024-01-30T08:40:01;16.95;;;8.82;;
81487;SDS011;70897;52.464;13.428;2024-01-30T08:42:49;16.27;;;8.80;;
81487;SDS011;70897;52.464;13.428;2024-01-30T08:45:34;15.32;;;8.73;;
81487;SDS011;70897;52.464;13.428;2024-01-30T08:48:19;14.65;;;8.00;;
81487;SDS011;70897;52.464;13.428;2024-01-30T08:51:06;13.60;;;8.00;;
81487;SDS011;70897;52.464;13.428;2024-01-30T08:53:52;16.02;;;7.80;;
81487;SDS011;70897;52.464;13.428;2024-01-30T08:56:38;17.63;;;8.35;;
81487;SDS011;70897;52.464;13.428;2024-01-30T08:59:23;17.80;;;8.32;;
81487;SDS011;70897;52.464;13.428;2024-01-30T09:02:09;12.45;;;7.93;;
81487;SDS011;70897;52.464;13.428;2024-01-30T09:04:56;17.73;;;8.70;;
81487;SDS011;70897;52.464;13.428;2024-01-30T09:07:42;15.30;;;8.57;;
81487;SDS011;70897;52.464;13.428;2024-01-30T09:10:27;18.38;;;8.57;;
81487;SDS011;70897;52.464;13.428;2024-01-30T09:13:13;16.70;;;8.63;;
81487;SDS011;70897;52.464;13.428;2024-01-30T09:15:58;15.55;;;8.48;;
81487;SDS011;70897;52.464;13.428;2024-01-30T09:18:44;16.15;;;8.35;;
81487;SDS011;70897;52.464;13.428;2024-01-30T09:21:29;15.40;;;9.02;;
81487;SDS011;70897;52.464;13.428;2024-01-30T09:24:14;16.48;;;8.40;;
81487;SDS011;70897;52.464;13.428;2024-01-30T09:27:00;16.27;;;8.45;;
81487;SDS011;70897;52.464;13.428;2024-01-30T09:29:45;16.58;;;8.60;;
81487;SDS011;70897;52.464;13.428;2024-01-30T09:32:31;14.98;;;8.30;;
81487;SDS011;70897;52.464;13.428;2024-01-30T09:35:16;15.75;;;8.85;;
81487;SDS011;70897;52.464;13.428;2024-01-30T09:38:02;16.52;;;8.73;;
81487;SDS011;70897;52.464;13.428;2024-01-30T09:40:49;16.63;;;8.35;;
81487;SDS011;70897;52.464;13.428;2024-01-30T09:43:39;14.43;;;8.50;;
81487;SDS011;70897;52.464;13.428;2024-01-30T09:46:26;25.08;;;9.00;;
81487;SDS011;70897;52.464;13.428;2024-01-30T09:49:12;18.25;;;8.98;;
81487;SDS011;70897;52.464;13.428;2024-01-30T09:51:58;15.68;;;8.40;;
81487;SDS011;70897;52.464;13.428;2024-01-30T09:54:44;16.42;;;8.43;;
81487;SDS011;70897;52.464;13.428;2024-01-30T09:57:30;15.07;;;8.52;;
81487;SDS011;70897;52.464;13.428;2024-01-30T10:00:15;15.65;;;7.88;;
81487;SDS011;70897;52.464;13.428;2024-01-30T10:03:01;14.50;;;7.82;;
81487;SDS011;70897;52.464;13.428;2024-01-30T10:05:53;14.57;;;7.88;;
81487;SDS011;70897;52.464;13.428;2024-01-30T10:08:40;20.42;;;7.82;;
81487;SDS011;70897;52.464;13.428;2024-01-30T10:11:25;12.55;;;7.15;;
81487;SDS011;70897;52.464;13.428;2024-01-30T10:14:11;13.35;;;7.70;;
81487;SDS011;70897;52.464;13.428;2024-01-30T10:16:57;13.95;;;7.85;;
81487;SDS011;70897;52.464;13.428;2024-01-30T10:19:42;14.23;;;7.82;;
81487;SDS011;70897;52.464;13.428;2024-01-30T10:22:28;14.50;;;7.47;;
81487;SDS011;70897;52.464;13.428;2024-01-30T10:25:17;12.27;;;7.32;;
81487;SDS011;70897;52.464;13.428;2024-01-30T10:28:03;15.60;;;7.75;;
81487;SDS011;70897;52.464;13.428;2024-01-30T10:30:57;12.15;;;6.68;;
81487;SDS011;70897;52.464;13.428;2024-01-30T10:33:44;13.57;;;6.78;;
81487;SDS011;70897;52.464;13.428;2024-01-30T10:36:30;12.10;;;6.70;;
81487;SDS011;70897;52.464;13.428;2024-01-30T10:39:16;12.27;;;6.68;;
81487;SDS011;70897;52.464;13.428;2024-01-30T10:42:03;12.88;;;6.78;;
81487;SDS011;70897;52.464;13.428;2024-01-30T10:44:56;13.10;;;7.22;;
81487;SDS011;70897;52.464;13.428;2024-01-30T10:47:49;10.73;;;6.10;;
81487;SDS011;70897;52.464;13.428;2024-01-30T10:50:35;13.50;;;6.50;;
81487;SDS011;70897;52.464;13.428;2024-01-30T10:53:20;13.35;;;6.88;;
81487;SDS011;70897;52.464;13.428;2024-01-30T10:56:07;13.43;;;6.15;;
81487;SDS011;70897;52.464;13.428;2024-01-30T10:58:53;9.90;;;6.07;;
81487;SDS011;70897;52.464;13.428;2024-01-30T11:01:39;9.65;;;6.05;;
81487;SDS011;70897;52.464;13.428;2024-01-30T11:04:25;13.15;;;7.00;;
81487;SDS011;70897;52.464;13.428;2024-01-30T11:07:17;12.43;;;6.68;;
81487;SDS011;70897;52.464;13.428;2024-01-30T11:10:03;10.55;;;6.60;;
81487;SDS011;70897;52.464;13.428;2024-01-30T11:12:50;11.55;;;6.80;;
81487;SDS011;70897;52.464;13.428;2024-01-30T11:15:37;14.80;;;7.28;;
81487;SDS011;70897;52.464;13.428;2024-01-30T11:18:26;10.73;;;6.65;;
81487;SDS011;70897;52.464;13.428;2024-01-30T11:21:13;13.13;;;7.00;;
81487;SDS011;70897;52.464;13.428;2024-01-30T11:23:59;12.48;;;7.10;;
81487;SDS011;70897;52.464;13.428;2024-01-30T11:26:55;15.85;;;7.13;;
81487;SDS011;70897;52.464;13.428;2024-01-30T11:29:49;13.30;;;7.13;;
81487;SDS011;70897;52.464;13.428;2024-01-30T11:32:36;14.05;;;6.78;;
81487;SDS011;70897;52.464;13.428;2024-01-30T11:35:25;13.00;;;6.82;;
81487;SDS011;70897;52.464;13.428;2024-01-30T11:38:11;11.48;;;6.93;;
81487;SDS011;70897;52.464;13.428;2024-01-30T11:40:59;11.05;;;6.80;;
81487;SDS011;70897;52.464;13.428;2024-01-30T11:43:52;11.13;;;6.65;;
81487;SDS011;70897;52.464;13.428;2024-01-30T11:46:38;12.13;;;7.05;;
81487;SDS011;70897;52.464;13.428;2024-01-30T11:49:23;15.32;;;7.40;;
81487;SDS011;70897;52.464;13.428;2024-01-30T11:52:09;11.15;;;7.28;;
81487;SDS011;70897;52.464;13.428;2024-01-30T11:54:54;11.98;;;7.57;;
81487;SDS011;70897;52.464;13.428;2024-01-30T11:57:40;14.98;;;7.35;;
81487;SDS011;70897;52.464;13.428;2024-01-30T12:00:25;14.95;;;7.20;;
81487;SDS011;70897;52.464;13.428;2024-01-30T12:03:11;12.48;;;7.63;;
81487;SDS011;70897;52.464;13.428;2024-01-30T12:05:57;12.85;;;7.30;;
81487;SDS011;70897;52.464;13.428;2024-01-30T12:08:43;12.18;;;7.07;;
81487;SDS011;70897;52.464;13.428;2024-01-30T12:11:29;12.43;;;7.72;;
81487;SDS011;70897;52.464;13.428;2024-01-30T12:14:14;12.90;;;7.22;;
81487;SDS011;70897;52.464;13.428;2024-01-30T12:16:59;11.93;;;7.13;;
81487;SDS011;70897;52.464;13.428;2024-01-30T12:19:45;15.05;;;7.00;;
81487;SDS011;70897;52.464;13.428;2024-01-30T12:22:30;11.43;;;6.82;;
81487;SDS011;70897;52.464;13.428;2024-01-30T12:25:16;15.20;;;6.75;;
81487;SDS011;70897;52.464;13.428;2024-01-30T12:28:02;12.27;;;7.20;;
81487;SDS011;70897;52.464;13.428;2024-01-30T12:30:47;14.77;;;7.03;;
81487;SDS011;70897;52.464;13.428;2024-01-30T12:33:33;13.13;;;7.35;;
81487;SDS011;70897;52.464;13.428;2024-01-30T12:36:18;12.55;;;7.35;;
81487;SDS011;70897;52.464;13.428;2024-01-30T12:39:04;16.17;;;7.10;;
81487;SDS011;70897;52.464;13.428;2024-01-30T12:41:50;13.32;;;7.35;;
81487;SDS011;70897;52.464;13.428;2024-01-30T12:44:35;13.13;;;7.18;;
81487;SDS011;70897;52.464;13.428;2024-01-30T12:47:23;13.82;;;7.20;;
81487;SDS011;70897;52.464;13.428;2024-01-30T12:50:09;13.13;;;6.53;;
81487;SDS011;70897;52.464;13.428;2024-01-30T12:52:56;11.55;;;6.97;;
81487;SDS011;70897;52.464;13.428;2024-01-30T12:55:42;14.32;;;6.75;;
81487;SDS011;70897;52.464;13.428;2024-01-30T12:58:27;14.10;;;7.20;;
81487;SDS011;70897;52.464;13.428;2024-01-30T13:01:13;11.90;;;6.80;;
81487;SDS011;70897;52.464;13.428;2024-01-30T13:03:58;12.07;;;6.80;;
81487;SDS011;70897;52.464;13.428;2024-01-30T13:06:43;11.68;;;6.72;;
81487;SDS011;70897;52.464;13.428;2024-01-30T13:09:29;14.57;;;6.85;;
81487;SDS011;70897;52.464;13.428;2024-01-30T13:12:15;15.65;;;7.35;;
81487;SDS011;70897;52.464;13.428;2024-01-30T13:15:01;12.98;;;6.85;;
81487;SDS011;70897;52.464;13.428;2024-01-30T13:17:50;16.50;;;6.97;;
81487;SDS011;70897;52.464;13.428;2024-01-30T13:20:37;11.27;;;6.30;;
81487;SDS011;70897;52.464;13.428;2024-01-30T13:23:22;16.33;;;7.50;;
81487;SDS011;70897;52.464;13.428;2024-01-30T13:26:08;10.98;;;6.10;;
81487;SDS011;70897;52.464;13.428;2024-01-30T13:28:53;12.60;;;6.88;;
81487;SDS011;70897;52.464;13.428;2024-01-30T13:31:38;12.40;;;6.82;;
81487;SDS011;70897;52.464;13.428;2024-01-30T13:34:24;21.08;;;8.43;;
81487;SDS011;70897;52.464;13.428;2024-01-30T13:37:09;13.07;;;6.90;;
81487;SDS011;70897;52.464;13.428;2024-01-30T13:39:55;13.43;;;6.65;;
81487;SDS011;70897;52.464;13.428;2024-01-30T13:42:41;14.20;;;6.75;;
81487;SDS011;70897;52.464;13.428;2024-01-30T13:45:26;12.98;;;6.93;;
81487;SDS011;70897;52.464;13.428;2024-01-30T13:48:11;13.50;;;7.32;;
81487;SDS011;70897;52.464;13.428;2024-01-30T13:50:57;13.48;;;6.97;;
81487;SDS011;70897;52.464;13.428;2024-01-30T13:53:42;18.42;;;9.70;;
81487;SDS011;70897;52.464;13.428;2024-01-30T13:56:28;14.85;;;6.97;;
81487;SDS011;70897;52.464;13.428;2024-01-30T13:59:14;12.77;;;6.93;;
81487;SDS011;70897;52.464;13.428;2024-01-30T14:02:00;14.10;;;7.25;;
81487;SDS011;70897;52.464;13.428;2024-01-30T14:04:45;13.90;;;6.78;;
81487;SDS011;70897;52.464;13.428;2024-01-30T14:07:31;16.83;;;7.25;;
81487;SDS011;70897;52.464;13.428;2024-01-30T14:10:16;14.52;;;6.78;;
81487;SDS011;70897;52.464;13.428;2024-01-30T14:13:01;13.27;;;6.72;;
81487;SDS011;70897;52.464;13.428;2024-01-30T14:15:47;13.55;;;7.20;;
81487;SDS011;70897;52.464;13.428;2024-01-30T14:18:32;12.20;;;7.10;;
81487;SDS011;70897;52.464;13.428;2024-01-30T14:21:17;12.30;;;7.00;;
81487;SDS011;70897;52.464;13.428;2024-01-30T14:24:03;13.98;;;7.30;;
81487;SDS011;70897;52.464;13.428;2024-01-30T14:26:48;12.40;;;6.82;;
81487;SDS011;70897;52.464;13.428;2024-01-30T14:29:34;12.23;;;6.75;;
81487;SDS011;70897;52.464;13.428;2024-01-30T14:32:19;14.50;;;7.47;;
81487;SDS011;70897;52.464;13.428;2024-01-30T14:35:05;15.13;;;7.00;;
81487;SDS011;70897;52.464;13.428;2024-01-30T14:37:50;13.27;;;6.55;;
81487;SDS011;70897;52.464;13.428;2024-01-30T14:40:36;12.73;;;7.13;;
81487;SDS011;70897;52.464;13.428;2024-01-30T14:43:21;11.88;;;6.80;;
81487;SDS011;70897;52.464;13.428;2024-01-30T14:46:06;12.15;;;6.22;;
81487;SDS011;70897;52.464;13.428;2024-01-30T14:48:52;12.57;;;6.88;;
81487;SDS011;70897;52.464;13.428;2024-01-30T14:51:38;12.45;;;6.65;;
81487;SDS011;70897;52.464;13.428;2024-01-30T14:54:24;12.18;;;7.03;;
81487;SDS011;70897;52.464;13.428;2024-01-30T14:57:10;13.25;;;6.82;;
81487;SDS011;70897;52.464;13.428;2024-01-30T14:59:56;13.38;;;6.68;;
81487;SDS011;70897;52.464;13.428;2024-01-30T15:02:41;13.07;;;6.65;;
81487;SDS011;70897;52.464;13.428;2024-01-30T15:05:27;12.93;;;6.88;;
81487;SDS011;70897;52.464;13.428;2024-01-30T15:08:12;11.48;;;6.65;;
81487;SDS011;70897;52.464;13.428;2024-01-30T15:10:58;13.40;;;6.75;;
81487;SDS011;70897;52.464;13.428;2024-01-30T15:13:44;11.77;;;6.82;;
81487;SDS011;70897;52.464;13.428;2024-01-30T15:16:29;14.80;;;7.00;;
81487;SDS011;70897;52.464;13.428;2024-01-30T15:19:15;17.90;;;7.47;;
81487;SDS011;70897;52.464;13.428;2024-01-30T15:22:00;12.85;;;6.88;;
81487;SDS011;70897;52.464;13.428;2024-01-30T15:24:46;10.73;;;6.68;;
81487;SDS011;70897;52.464;13.428;2024-01-30T15:27:31;12.55;;;6.75;;
81487;SDS011;70897;52.464;13.428;2024-01-30T15:30:17;16.98;;;7.32;;
81487;SDS011;70897;52.464;13.428;2024-01-30T15:33:04;12.38;;;7.03;;
81487;SDS011;70897;52.464;13.428;2024-01-30T15:35:49;14.63;;;7.30;;
81487;SDS011;70897;52.464;13.428;2024-01-30T15:38:35;16.30;;;7.45;;
81487;SDS011;70897;52.464;13.428;2024-01-30T15:41:20;11.23;;;6.97;;
81487;SDS011;70897;52.464;13.428;2024-01-30T15:44:07;14.10;;;7.35;;
81487;SDS011;70897;52.464;13.428;2024-01-30T15:46:52;13.70;;;7.50;;
81487;SDS011;70897;52.464;13.428;2024-01-30T15:49:37;13.43;;;7.35;;
81487;SDS011;70897;52.464;13.428;2024-01-30T15:52:23;13.45;;;7.20;;
81487;SDS011;70897;52.464;13.428;2024-01-30T15:55:08;17.08;;;7.15;;
81487;SDS011;70897;52.464;13.428;2024-01-30T15:57:54;17.20;;;8.75;;
81487;SDS011;70897;52.464;13.428;2024-01-30T16:00:39;16.33;;;8.38;;
81487;SDS011;70897;52.464;13.428;2024-01-30T16:03:24;13.82;;;7.95;;
81487;SDS011;70897;52.464;13.428;2024-01-30T16:06:11;18.40;;;8.00;;
81487;SDS011;70897;52.464;13.428;2024-01-30T16:09:16;17.48;;;7.85;;